KBEC/BEC METAR and TAF weather

Enter ICAO airport designator
Station Type Date Time Source
KBEC METAR 2018/12/10 17:35 UTC NOAA

KBEC 101735Z AUTO 26004KT 10SM CLR 03/M06 A3034 RMK AO2 T00281065


Station Type Date Time Source
KBEC Decoded METAR 2018/12/10 17:35 UTC NOAA

Station name not available
Dec 10, 2018 - 12:35 PM EST / 2018.12.10 1735 UTC
Wind: from the W (260 degrees) at 5 MPH (4 KT):0
Visibility: 10 mile(s):0
Sky conditions: clear
Temperature: 37.0 F (2.8 C)
Dew Point: 20.3 F (-6.5 C)
Relative Humidity: 50%
Pressure (altimeter): 30.34 in. Hg (1027 hPa)
ob: KBEC 101735Z AUTO 26004KT 10SM CLR 03/M06 A3034 RMK AO2 T00281065
cycle: 17

Station Type Date Time Source
KBEC TAF UTC NOAA

Error!


Example: see airport list